createdAt,value
2018-07-13T00:02:24.470Z,5.70
2018-07-13T00:05:00.148Z,5.90
2018-07-13T00:07:35.662Z,6.37
2018-07-13T00:10:10.940Z,5.97
2018-07-13T00:12:47.153Z,6.47
2018-07-13T00:15:22.282Z,6.17
2018-07-13T00:17:57.687Z,6.30
2018-07-13T00:20:33.134Z,6.00
2018-07-13T00:23:08.415Z,6.00
2018-07-13T00:25:43.556Z,5.63
2018-07-13T00:28:19.373Z,6.23
2018-07-13T00:30:54.849Z,5.87
2018-07-13T00:33:31.252Z,6.07
2018-07-13T00:36:07.384Z,5.80
2018-07-13T00:38:42.605Z,5.87
2018-07-13T00:41:18.362Z,5.87
2018-07-13T00:43:54.273Z,6.10
2018-07-13T00:46:29.659Z,5.83
2018-07-13T00:49:05.108Z,6.53
2018-07-13T00:51:40.228Z,6.30
2018-07-13T00:54:15.950Z,5.90
2018-07-13T00:56:51.543Z,6.43
2018-07-13T00:59:27.459Z,6.20
2018-07-13T01:02:03.020Z,6.37
2018-07-13T01:04:37.957Z,6.47
2018-07-13T01:07:13.394Z,5.80
2018-07-13T01:09:49.295Z,6.20
2018-07-13T01:12:24.698Z,6.50
2018-07-13T01:15:00.070Z,6.13
2018-07-13T01:17:35.386Z,6.17
2018-07-13T01:20:09.987Z,6.17
2018-07-13T01:22:45.156Z,5.50
2018-07-13T01:25:20.863Z,6.03
2018-07-13T01:27:56.428Z,6.73
2018-07-13T01:30:32.256Z,6.00
2018-07-13T01:33:07.629Z,6.30
2018-07-13T01:35:43.367Z,6.50
2018-07-13T01:38:19.856Z,6.87
2018-07-13T01:40:55.961Z,7.07
2018-07-13T01:43:31.934Z,7.17
2018-07-13T01:46:07.730Z,6.90
2018-07-13T01:48:43.359Z,7.03
2018-07-13T01:51:19.735Z,6.70
2018-07-13T01:53:54.965Z,7.03
2018-07-13T01:56:30.529Z,6.93
2018-07-13T01:59:06.044Z,6.53
2018-07-13T02:01:41.190Z,6.90
2018-07-13T02:04:16.046Z,7.10
2018-07-13T02:06:51.546Z,7.47
2018-07-13T02:09:27.129Z,6.80
2018-07-13T02:12:02.408Z,6.63
2018-07-13T02:14:38.560Z,6.90
2018-07-13T02:17:13.695Z,6.87
2018-07-13T02:19:48.936Z,6.90
2018-07-13T02:22:23.991Z,7.10
2018-07-13T02:25:00.132Z,6.90
2018-07-13T02:27:35.691Z,6.80
2018-07-13T02:30:11.676Z,6.47
2018-07-13T02:32:47.646Z,7.00
2018-07-13T02:35:22.660Z,7.53
2018-07-13T02:37:57.822Z,7.53
2018-07-13T02:40:33.763Z,7.13
2018-07-13T02:43:11.540Z,7.67
2018-07-13T02:45:47.214Z,7.03
2018-07-13T02:48:22.744Z,7.43
2018-07-13T02:50:58.182Z,7.27
2018-07-13T02:53:32.936Z,7.63
2018-07-13T02:56:07.956Z,7.93
2018-07-13T02:58:43.806Z,7.37
2018-07-13T03:01:18.919Z,8.80
2018-07-13T03:03:54.135Z,8.37
2018-07-13T03:06:30.036Z,7.90
2018-07-13T03:09:07.587Z,7.60
2018-07-13T03:11:43.387Z,8.03
2018-07-13T03:14:18.510Z,8.60
2018-07-13T03:16:54.461Z,8.30
2018-07-13T03:19:29.815Z,8.87
2018-07-13T03:22:04.076Z,8.03
2018-07-13T03:24:39.537Z,10.30
2018-07-13T03:27:15.403Z,10.37
2018-07-13T03:29:50.302Z,10.07
2018-07-13T03:32:26.289Z,9.20
2018-07-13T03:35:00.922Z,8.43
2018-07-13T03:37:36.459Z,8.87
2018-07-13T03:40:12.097Z,8.60
2018-07-13T03:42:48.293Z,8.70
2018-07-13T03:45:24.183Z,7.80
2018-07-13T03:47:59.988Z,8.60
2018-07-13T03:50:36.459Z,9.80
2018-07-13T03:53:12.923Z,9.07
2018-07-13T03:55:48.565Z,8.30
2018-07-13T03:58:24.626Z,8.13
2018-07-13T04:00:59.993Z,8.33
2018-07-13T04:03:37.007Z,8.73
2018-07-13T04:06:12.155Z,8.70
2018-07-13T04:08:48.378Z,9.30
2018-07-13T04:11:24.514Z,8.60
2018-07-13T04:13:59.936Z,7.80
2018-07-13T04:16:36.825Z,8.70
2018-07-13T04:19:12.357Z,8.83
2018-07-13T04:21:47.778Z,9.13
2018-07-13T04:24:23.330Z,9.40
2018-07-13T04:26:58.313Z,9.37
2018-07-13T04:29:33.873Z,10.30
2018-07-13T04:32:09.960Z,10.47
2018-07-13T04:34:45.255Z,9.97
2018-07-13T04:37:20.750Z,9.80
2018-07-13T04:39:57.035Z,9.50
2018-07-13T04:42:32.330Z,8.80
2018-07-13T04:45:09.268Z,8.93
2018-07-13T04:47:44.303Z,8.33
2018-07-13T04:50:19.492Z,9.17
2018-07-13T04:52:55.392Z,9.10
2018-07-13T04:55:31.162Z,9.67
2018-07-13T04:58:06.394Z,9.40
2018-07-13T05:00:42.126Z,10.40
2018-07-13T05:03:17.665Z,10.10
2018-07-13T05:05:52.693Z,10.10
2018-07-13T05:08:27.922Z,10.13
2018-07-13T05:11:03.263Z,10.43
2018-07-13T05:13:41.161Z,10.37
2018-07-13T05:16:17.282Z,11.30
2018-07-13T05:18:53.075Z,10.53
2018-07-13T05:21:28.499Z,12.80
2018-07-13T05:24:03.769Z,12.10
2018-07-13T05:26:39.271Z,11.90
2018-07-13T05:29:15.350Z,11.27
2018-07-13T05:31:51.132Z,11.40
2018-07-13T05:34:27.243Z,11.27
2018-07-13T05:37:03.519Z,11.80
2018-07-13T05:39:39.559Z,12.20
2018-07-13T05:42:13.677Z,11.70
2018-07-13T05:44:48.854Z,12.60
2018-07-13T05:47:24.266Z,12.43
2018-07-13T05:49:59.563Z,12.33
2018-07-13T05:52:34.740Z,12.27
2018-07-13T05:55:09.890Z,12.30
2018-07-13T05:57:45.053Z,12.17
2018-07-13T06:00:20.547Z,11.80
2018-07-13T06:02:55.723Z,11.57
2018-07-13T06:05:31.396Z,11.50
2018-07-13T06:08:06.807Z,11.50
2018-07-13T06:10:42.252Z,10.77
2018-07-13T06:13:18.371Z,10.60
2018-07-13T06:15:54.171Z,10.83
2018-07-13T06:18:29.599Z,10.03
2018-07-13T06:21:05.119Z,9.70
2018-07-13T06:23:41.471Z,10.27
2018-07-13T06:26:16.961Z,10.63
2018-07-13T06:28:52.689Z,10.03
2018-07-13T06:31:28.681Z,10.93
2018-07-13T06:34:04.615Z,9.57
2018-07-13T06:36:40.037Z,10.07
2018-07-13T06:39:16.209Z,10.80
2018-07-13T06:41:51.672Z,11.17
2018-07-13T06:44:26.782Z,10.33
2018-07-13T06:47:01.434Z,9.73
2018-07-13T06:49:36.743Z,10.10
2018-07-13T06:52:12.485Z,9.17
2018-07-13T06:54:48.376Z,9.77
2018-07-13T06:57:34.630Z,9.87
2018-07-13T07:01:13.566Z,9.27
2018-07-13T07:04:21.076Z,9.97
2018-07-13T07:06:57.412Z,9.40
2018-07-13T07:09:32.174Z,9.80
2018-07-13T07:13:13.838Z,9.43
2018-07-13T07:15:49.615Z,9.50
2018-07-13T07:18:25.475Z,9.50
2018-07-13T07:21:01.283Z,9.07
2018-07-13T07:23:37.472Z,9.73
2018-07-13T07:26:12.510Z,9.60
2018-07-13T07:28:49.094Z,9.50
2018-07-13T07:31:25.016Z,8.63
2018-07-13T07:34:00.067Z,9.17
2018-07-13T07:36:37.991Z,9.13
2018-07-13T07:39:13.728Z,9.07
2018-07-13T07:41:50.196Z,8.83
2018-07-13T07:44:25.337Z,8.23
2018-07-13T07:47:01.223Z,8.33
2018-07-13T07:49:36.690Z,8.30
2018-07-13T07:52:11.672Z,8.10
2018-07-13T07:54:48.636Z,7.73
2018-07-13T07:57:25.632Z,8.23
2018-07-13T08:00:00.970Z,7.47
2018-07-13T08:02:37.422Z,7.37
2018-07-13T08:05:13.094Z,7.30
2018-07-13T08:07:48.485Z,7.00
2018-07-13T08:10:23.838Z,6.80
2018-07-13T08:13:00.015Z,6.20
2018-07-13T08:15:35.485Z,6.77
2018-07-13T08:18:10.485Z,6.17
2018-07-13T08:20:47.681Z,6.50
2018-07-13T08:23:22.726Z,5.70
2018-07-13T08:25:58.316Z,6.40
2018-07-13T08:28:36.366Z,6.47
2018-07-13T08:31:11.851Z,6.03
2018-07-13T08:33:48.136Z,5.50
2018-07-13T08:36:23.305Z,5.20
2018-07-13T08:38:59.560Z,5.10
2018-07-13T08:41:34.682Z,4.73
2018-07-13T08:44:10.342Z,5.20
2018-07-13T08:46:46.612Z,4.60
2018-07-13T08:49:22.342Z,4.50
2018-07-13T08:51:58.844Z,4.33
2018-07-13T08:54:34.466Z,3.90
2018-07-13T08:57:10.110Z,3.90
2018-07-13T08:59:45.359Z,4.17
2018-07-13T09:02:20.969Z,3.80
2018-07-13T09:04:57.052Z,4.03
2018-07-13T09:07:33.896Z,3.70
2018-07-13T09:10:11.528Z,3.80
2018-07-13T09:12:47.405Z,3.33
2018-07-13T09:15:22.645Z,3.47
2018-07-13T09:17:57.945Z,3.20
2018-07-13T09:20:33.613Z,3.67
2018-07-13T09:23:09.724Z,3.57
2018-07-13T09:25:46.040Z,3.60
2018-07-13T09:28:23.637Z,4.10
2018-07-13T09:30:58.973Z,3.70
2018-07-13T09:33:34.735Z,3.80
2018-07-13T09:36:10.841Z,4.10
2018-07-13T09:38:48.452Z,3.50
2018-07-13T09:41:24.342Z,3.70
2018-07-13T09:43:59.511Z,3.83
2018-07-13T09:46:35.440Z,3.57
2018-07-13T09:49:11.567Z,3.70
2018-07-13T09:51:47.915Z,3.73
2018-07-13T09:54:24.130Z,3.40
2018-07-13T09:57:00.377Z,3.53
2018-07-13T09:59:37.019Z,3.40
2018-07-13T10:02:12.269Z,3.57
2018-07-13T10:04:48.830Z,3.70
2018-07-13T10:07:24.897Z,3.63
2018-07-13T10:10:00.431Z,3.60
2018-07-13T10:12:37.209Z,3.50
2018-07-13T10:15:13.176Z,3.40
2018-07-13T10:17:50.155Z,3.40
2018-07-13T10:20:27.530Z,3.20
2018-07-13T10:23:03.712Z,3.33
2018-07-13T10:25:39.313Z,3.80
2018-07-13T10:28:15.093Z,3.70
2018-07-13T10:30:51.151Z,3.93
2018-07-13T10:33:29.112Z,3.83
2018-07-13T10:36:06.577Z,3.90
2018-07-13T10:38:41.990Z,3.30
2018-07-13T10:41:18.040Z,3.53
2018-07-13T10:43:54.819Z,3.83
2018-07-13T10:46:30.483Z,3.70
2018-07-13T10:49:06.584Z,3.73
2018-07-13T10:51:43.006Z,3.93
2018-07-13T10:54:17.955Z,3.53
2018-07-13T10:56:53.414Z,3.70
2018-07-13T10:59:28.881Z,3.50
2018-07-13T11:02:04.405Z,3.63
2018-07-13T11:04:38.989Z,3.13
2018-07-13T11:07:14.913Z,3.30
2018-07-13T11:09:50.062Z,3.23
2018-07-13T11:12:25.008Z,3.50
2018-07-13T11:15:00.428Z,3.23
2018-07-13T11:17:36.292Z,3.20
2018-07-13T11:20:11.622Z,3.03
2018-07-13T11:22:47.266Z,2.93
2018-07-13T11:25:23.023Z,3.13
2018-07-13T11:27:57.951Z,2.90
2018-07-13T11:30:33.486Z,2.80
2018-07-13T11:33:09.767Z,3.27
2018-07-13T11:35:45.054Z,2.70
2018-07-13T11:38:20.654Z,2.37
2018-07-13T11:40:55.277Z,2.30
2018-07-13T11:43:30.752Z,2.40
2018-07-13T11:46:06.187Z,2.40
2018-07-13T11:48:41.420Z,2.20
2018-07-13T11:51:17.143Z,2.60
2018-07-13T11:53:52.705Z,2.43
2018-07-13T11:56:28.180Z,2.37
2018-07-13T11:59:03.255Z,2.30
2018-07-13T12:01:39.421Z,2.50
2018-07-13T12:04:15.187Z,2.70
2018-07-13T12:06:50.613Z,2.77
2018-07-13T12:09:26.969Z,2.63
2018-07-13T12:12:02.575Z,2.40
2018-07-13T12:14:37.627Z,2.60
2018-07-13T12:17:13.020Z,2.63
2018-07-13T12:19:48.214Z,2.57
2018-07-13T12:22:23.579Z,2.77
2018-07-13T12:24:58.162Z,2.70
2018-07-13T12:27:33.563Z,2.30
2018-07-13T12:30:09.610Z,2.50
2018-07-13T12:32:44.947Z,2.50
2018-07-13T12:35:20.398Z,2.43
2018-07-13T12:37:56.427Z,2.60
2018-07-13T12:40:32.307Z,2.20
2018-07-13T12:43:07.732Z,2.37
2018-07-13T12:45:42.760Z,2.10
2018-07-13T12:48:18.019Z,2.30
2018-07-13T12:50:53.470Z,2.20
2018-07-13T12:53:28.351Z,2.20
2018-07-13T12:56:04.015Z,2.23
2018-07-13T12:58:40.090Z,2.20
2018-07-13T13:01:15.621Z,2.40
2018-07-13T13:03:50.680Z,1.90
2018-07-13T13:06:26.205Z,2.13
2018-07-13T13:09:02.000Z,2.40
2018-07-13T13:11:37.090Z,2.20
2018-07-13T13:14:12.238Z,2.47
2018-07-13T13:16:47.321Z,2.23
2018-07-13T13:19:22.383Z,2.30
2018-07-13T13:21:57.976Z,2.20
2018-07-13T13:24:32.569Z,2.17
2018-07-13T13:27:07.339Z,2.50
2018-07-13T13:29:42.562Z,2.30
2018-07-13T13:32:17.710Z,2.00
2018-07-13T13:34:52.991Z,2.40
2018-07-13T13:37:27.109Z,2.40
2018-07-13T13:40:02.450Z,2.03
2018-07-13T13:42:37.051Z,2.03
2018-07-13T13:45:11.898Z,2.10
2018-07-13T13:47:46.970Z,2.20
2018-07-13T13:50:21.570Z,2.20
2018-07-13T13:52:56.602Z,2.20
2018-07-13T13:55:31.215Z,2.33
2018-07-13T13:58:06.669Z,2.00
2018-07-13T14:00:41.963Z,2.03
2018-07-13T14:03:17.315Z,2.00
2018-07-13T14:05:52.698Z,1.90
2018-07-13T14:08:28.092Z,2.10
2018-07-13T14:11:04.010Z,1.80
2018-07-13T14:13:39.923Z,2.20
2018-07-13T14:16:14.875Z,2.00
2018-07-13T14:18:50.501Z,2.10
2018-07-13T14:21:26.324Z,1.90
2018-07-13T14:24:02.187Z,1.90
2018-07-13T14:26:39.481Z,2.07
2018-07-13T14:29:16.869Z,2.03
2018-07-13T14:31:51.606Z,2.13
2018-07-13T14:34:27.174Z,2.03
2018-07-13T14:37:02.580Z,2.13
2018-07-13T14:39:40.300Z,2.10
2018-07-13T14:42:17.019Z,2.17
2018-07-13T14:44:53.227Z,2.07
2018-07-13T14:47:31.732Z,2.07
2018-07-13T14:50:09.119Z,2.20
2018-07-13T14:52:44.762Z,2.20
2018-07-13T14:55:20.759Z,2.07
2018-07-13T14:57:58.406Z,2.23
2018-07-13T15:00:33.559Z,2.23
2018-07-13T15:03:11.409Z,2.40
2018-07-13T15:05:47.053Z,2.37
2018-07-13T15:08:22.916Z,2.10
2018-07-13T15:10:57.936Z,2.20
2018-07-13T15:13:33.175Z,2.07
2018-07-13T15:16:08.613Z,2.10
2018-07-13T15:18:44.882Z,2.10
2018-07-13T15:21:22.402Z,2.43
2018-07-13T15:24:00.726Z,2.40
2018-07-13T15:26:38.525Z,2.20
2018-07-13T15:29:14.891Z,2.10
2018-07-13T15:31:49.805Z,2.40
2018-07-13T15:34:26.232Z,2.23
2018-07-13T15:37:01.873Z,2.20
2018-07-13T15:39:39.272Z,2.37
2018-07-13T15:42:16.201Z,2.10
2018-07-13T15:44:51.742Z,2.63
2018-07-13T15:47:27.538Z,2.60
2018-07-13T15:50:03.134Z,2.67
2018-07-13T15:52:40.534Z,2.33
2018-07-13T15:55:16.459Z,2.20
2018-07-13T15:57:51.343Z,2.50
2018-07-13T16:00:28.380Z,2.40
2018-07-13T16:03:04.513Z,2.93
2018-07-13T16:05:40.247Z,2.60
2018-07-13T16:08:16.245Z,2.70
2018-07-13T16:10:51.872Z,2.40
2018-07-13T16:13:28.259Z,2.37
2018-07-13T16:18:27.474Z,2.50
2018-07-13T16:21:03.427Z,2.40
2018-07-13T16:23:39.682Z,2.53
2018-07-13T16:26:15.146Z,2.57
2018-07-13T16:28:50.538Z,2.70
2018-07-13T16:31:26.096Z,2.80
2018-07-13T16:34:01.693Z,2.50
2018-07-13T16:36:38.191Z,2.50
2018-07-13T16:39:14.289Z,2.70
2018-07-13T16:41:50.248Z,2.53
2018-07-13T16:44:27.532Z,2.20
2018-07-13T16:47:02.863Z,2.30
2018-07-13T16:49:40.258Z,2.33
2018-07-13T16:52:15.781Z,2.80
2018-07-13T16:54:51.122Z,4.20
2018-07-13T16:57:26.959Z,3.27
2018-07-13T17:00:02.536Z,3.63
2018-07-13T17:02:38.371Z,3.03
2018-07-13T17:05:13.322Z,2.67
2018-07-13T17:07:48.892Z,3.10
2018-07-13T17:10:26.036Z,3.20
2018-07-13T17:13:01.671Z,3.37
2018-07-13T17:15:40.896Z,3.23
2018-07-13T17:18:16.855Z,3.53
2018-07-13T17:20:52.031Z,3.60
2018-07-13T17:23:27.919Z,3.70
2018-07-13T17:26:03.939Z,3.37
2018-07-13T17:28:39.181Z,3.80
2018-07-13T17:31:15.390Z,4.80
2018-07-13T17:33:50.687Z,3.20
2018-07-13T17:36:29.348Z,3.47
2018-07-13T17:39:05.417Z,3.40
2018-07-13T17:41:41.211Z,3.60
2018-07-13T17:44:19.313Z,3.17
2018-07-13T17:46:56.071Z,3.43
2018-07-13T17:49:30.810Z,3.47
2018-07-13T17:52:05.838Z,3.87
2018-07-13T17:54:41.208Z,3.33
2018-07-13T17:57:16.227Z,3.40
2018-07-13T17:59:51.254Z,3.40
2018-07-13T18:02:26.600Z,3.23
2018-07-13T18:05:03.582Z,3.20
2018-07-13T18:07:39.320Z,3.30
2018-07-13T18:10:14.709Z,3.23
2018-07-13T18:12:50.630Z,3.73
2018-07-13T18:15:25.856Z,3.80
2018-07-13T18:18:00.908Z,4.87
2018-07-13T18:20:36.443Z,11.87
2018-07-13T18:23:13.997Z,12.27
2018-07-13T18:25:49.663Z,8.40
2018-07-13T18:28:24.916Z,7.37
2018-07-13T18:31:02.068Z,7.80
2018-07-13T18:33:39.159Z,7.63
2018-07-13T18:36:15.422Z,5.50
2018-07-13T18:38:50.696Z,6.70
2018-07-13T18:41:26.078Z,5.20
2018-07-13T18:44:03.898Z,4.40
2018-07-13T18:46:40.844Z,4.23
2018-07-13T18:49:18.740Z,4.50
2018-07-13T18:51:54.543Z,7.30
2018-07-13T18:54:30.191Z,7.80
2018-07-13T18:57:05.536Z,12.33
2018-07-13T18:59:40.559Z,8.70
2018-07-13T19:02:16.292Z,5.90
2018-07-13T19:04:51.087Z,5.10
2018-07-13T19:07:28.655Z,5.80
2018-07-13T19:10:03.876Z,4.80
2018-07-13T19:12:40.179Z,4.40
2018-07-13T19:15:15.916Z,4.00
2018-07-13T19:17:52.028Z,4.57
2018-07-13T19:20:29.717Z,4.43
2018-07-13T19:23:05.607Z,3.90
2018-07-13T19:25:41.931Z,4.10
2018-07-13T19:28:18.614Z,4.00
2018-07-13T19:30:55.144Z,4.13
2018-07-13T19:33:29.909Z,4.20
2018-07-13T19:36:04.867Z,4.83
2018-07-13T19:38:39.332Z,5.50
2018-07-13T19:41:14.434Z,8.63
2018-07-13T19:43:55.973Z,8.10
2018-07-13T19:46:30.721Z,7.03
2018-07-13T19:49:06.057Z,5.80
2018-07-13T19:51:41.081Z,5.60
2018-07-13T19:54:16.701Z,4.90
2018-07-13T19:56:52.047Z,5.27
2018-07-13T19:59:27.443Z,5.07
2018-07-13T20:02:03.579Z,4.73
2018-07-13T20:04:39.137Z,5.07
2018-07-13T20:07:14.213Z,7.63
2018-07-13T20:09:49.497Z,9.07
2018-07-13T20:12:25.657Z,6.60
2018-07-13T20:15:01.202Z,6.63
2018-07-13T20:17:39.006Z,8.20
2018-07-13T20:20:14.547Z,5.93
2018-07-13T20:22:49.575Z,5.77
2018-07-13T20:25:26.969Z,5.60
2018-07-13T20:28:02.532Z,5.97
2018-07-13T20:30:39.187Z,5.37
2018-07-13T20:33:15.364Z,5.33
2018-07-13T20:35:50.683Z,5.07
2018-07-13T20:38:28.174Z,5.07
2018-07-13T20:41:04.554Z,5.30
2018-07-13T20:43:40.298Z,5.00
2018-07-13T20:46:17.266Z,4.87
2018-07-13T20:48:52.427Z,6.80
2018-07-13T20:51:28.822Z,6.70
2018-07-13T20:54:05.374Z,6.20
2018-07-13T20:56:41.203Z,6.60
2018-07-13T20:59:17.208Z,6.23
2018-07-13T21:01:52.398Z,6.33
2018-07-13T21:04:29.770Z,6.67
2018-07-13T21:07:06.462Z,6.30
2018-07-13T21:09:41.602Z,6.70
2018-07-13T21:12:18.659Z,6.23
2018-07-13T21:14:54.521Z,6.60
2018-07-13T21:17:31.398Z,7.57
2018-07-13T21:20:08.239Z,7.53
2018-07-13T21:22:43.601Z,7.10
2018-07-13T21:25:18.874Z,6.70
2018-07-13T21:27:53.458Z,7.07
2018-07-13T21:30:28.175Z,6.40
2018-07-13T21:33:02.348Z,6.43
2018-07-13T21:35:36.799Z,6.37
2018-07-13T21:38:16.164Z,6.67
2018-07-13T21:40:52.426Z,6.00
2018-07-13T21:43:26.515Z,6.40
2018-07-13T21:46:00.926Z,5.80
2018-07-13T21:48:35.329Z,6.90
2018-07-13T21:51:10.436Z,6.97
2018-07-13T21:53:45.304Z,5.67
2018-07-13T21:56:19.966Z,6.13
2018-07-13T21:58:55.113Z,6.23
2018-07-13T22:01:29.761Z,6.80
2018-07-13T22:04:04.180Z,5.87
2018-07-13T22:06:38.452Z,6.10
2018-07-13T22:09:12.784Z,5.93
2018-07-13T22:11:47.085Z,6.50
2018-07-13T22:14:21.125Z,6.77
2018-07-13T22:16:55.825Z,6.53
2018-07-13T22:19:30.298Z,6.43
2018-07-13T22:22:04.362Z,6.27
2018-07-13T22:24:38.622Z,5.97
2018-07-13T22:27:13.091Z,6.10
2018-07-13T22:29:47.913Z,6.40
2018-07-13T22:32:22.216Z,6.17
2018-07-13T22:34:57.752Z,6.60
2018-07-13T22:37:32.601Z,6.20
2018-07-13T22:40:07.171Z,6.67
2018-07-13T22:42:41.844Z,6.60
2018-07-13T22:45:16.687Z,6.03
2018-07-13T22:47:51.127Z,5.97
2018-07-13T22:50:27.265Z,6.53
2018-07-13T22:53:02.273Z,6.10
2018-07-13T22:55:36.736Z,6.40
2018-07-13T22:58:11.351Z,6.80
2018-07-13T23:00:45.791Z,7.23
2018-07-13T23:03:20.465Z,6.87
2018-07-13T23:05:54.633Z,7.17
2018-07-13T23:08:29.628Z,5.97
2018-07-13T23:11:04.200Z,6.83
2018-07-13T23:13:38.386Z,7.10
2018-07-13T23:16:13.118Z,6.80
2018-07-13T23:18:48.030Z,6.57
2018-07-13T23:21:23.251Z,7.07
2018-07-13T23:23:57.928Z,6.53
2018-07-13T23:29:11.769Z,6.93
2018-07-13T23:31:46.710Z,8.37
2018-07-13T23:34:20.720Z,7.40
2018-07-13T23:36:55.182Z,7.10
2018-07-13T23:39:29.515Z,7.57
2018-07-13T23:42:04.181Z,7.53
2018-07-13T23:44:38.786Z,6.93
2018-07-13T23:47:14.349Z,7.13
2018-07-13T23:49:49.082Z,7.60
2018-07-13T23:52:23.998Z,6.97
2018-07-13T23:54:58.558Z,6.97
2018-07-13T23:57:33.053Z,7.50
